sensor_id;sensor_type;location;lat;lon;timestamp;temperature;humidity
14397;DHT22;50653;47.810;13.022;2023-06-26T00:00:43;20.30;59.70
14397;DHT22;50653;47.810;13.022;2023-06-26T00:03:09;20.70;59.40
14397;DHT22;50653;47.810;13.022;2023-06-26T00:05:38;20.80;59.10
14397;DHT22;50653;47.810;13.022;2023-06-26T00:08:04;20.90;58.80
14397;DHT22;50653;47.810;13.022;2023-06-26T00:10:31;20.80;58.80
14397;DHT22;50653;47.810;13.022;2023-06-26T00:12:56;20.60;58.70
14397;DHT22;50653;47.810;13.022;2023-06-26T00:15:22;20.30;59.20
14397;DHT22;50653;47.810;13.022;2023-06-26T00:17:48;20.60;59.20
14397;DHT22;50653;47.810;13.022;2023-06-26T00:20:13;20.40;58.90
14397;DHT22;50653;47.810;13.022;2023-06-26T00:22:40;20.50;59.40
14397;DHT22;50653;47.810;13.022;2023-06-26T00:25:08;20.60;59.30
14397;DHT22;50653;47.810;13.022;2023-06-26T00:27:34;20.50;59.30
14397;DHT22;50653;47.810;13.022;2023-06-26T00:30:00;20.50;59.40
14397;DHT22;50653;47.810;13.022;2023-06-26T00:32:25;20.30;59.50
14397;DHT22;50653;47.810;13.022;2023-06-26T00:34:51;20.40;59.60
14397;DHT22;50653;47.810;13.022;2023-06-26T00:37:17;20.40;59.60
14397;DHT22;50653;47.810;13.022;2023-06-26T00:39:43;20.30;59.70
14397;DHT22;50653;47.810;13.022;2023-06-26T00:42:09;20.10;59.90
14397;DHT22;50653;47.810;13.022;2023-06-26T00:44:34;20.20;60.10
14397;DHT22;50653;47.810;13.022;2023-06-26T00:47:01;20.40;59.90
14397;DHT22;50653;47.810;13.022;2023-06-26T00:49:27;20.40;59.80
14397;DHT22;50653;47.810;13.022;2023-06-26T00:51:53;20.20;60.00
14397;DHT22;50653;47.810;13.022;2023-06-26T00:54:20;20.20;60.20
14397;DHT22;50653;47.810;13.022;2023-06-26T00:56:48;19.90;60.60
14397;DHT22;50653;47.810;13.022;2023-06-26T00:59:14;20.00;60.90
14397;DHT22;50653;47.810;13.022;2023-06-26T01:01:40;20.00;60.80
14397;DHT22;50653;47.810;13.022;2023-06-26T01:04:06;20.00;60.90
14397;DHT22;50653;47.810;13.022;2023-06-26T01:06:32;19.80;61.30
14397;DHT22;50653;47.810;13.022;2023-06-26T01:09:01;20.00;61.60
14397;DHT22;50653;47.810;13.022;2023-06-26T01:11:27;20.00;60.70
14397;DHT22;50653;47.810;13.022;2023-06-26T01:13:54;20.10;61.00
14397;DHT22;50653;47.810;13.022;2023-06-26T01:16:21;20.00;61.40
14397;DHT22;50653;47.810;13.022;2023-06-26T01:18:49;19.90;61.20
14397;DHT22;50653;47.810;13.022;2023-06-26T01:21:15;19.90;61.10
14397;DHT22;50653;47.810;13.022;2023-06-26T01:24:16;20.00;61.50
14397;DHT22;50653;47.810;13.022;2023-06-26T01:26:53;19.90;61.60
14397;DHT22;50653;47.810;13.022;2023-06-26T01:29:19;19.80;61.70
14397;DHT22;50653;47.810;13.022;2023-06-26T01:31:46;19.70;61.70
14397;DHT22;50653;47.810;13.022;2023-06-26T01:34:18;19.60;61.90
14397;DHT22;50653;47.810;13.022;2023-06-26T01:36:46;19.90;62.00
14397;DHT22;50653;47.810;13.022;2023-06-26T01:39:15;19.90;61.40
14397;DHT22;50653;47.810;13.022;2023-06-26T01:41:43;19.90;62.00
14397;DHT22;50653;47.810;13.022;2023-06-26T01:44:23;19.90;61.90
14397;DHT22;50653;47.810;13.022;2023-06-26T01:47:02;19.80;62.10
14397;DHT22;50653;47.810;13.022;2023-06-26T01:49:47;19.50;62.10
14397;DHT22;50653;47.810;13.022;2023-06-26T01:52:28;19.50;62.60
14397;DHT22;50653;47.810;13.022;2023-06-26T01:57:47;19.10;64.20
14397;DHT22;50653;47.810;13.022;2023-06-26T02:00:18;18.80;64.50
14397;DHT22;50653;47.810;13.022;2023-06-26T02:02:45;18.50;64.80
14397;DHT22;50653;47.810;13.022;2023-06-26T02:05:13;19.00;65.30
14397;DHT22;50653;47.810;13.022;2023-06-26T02:07:40;19.00;65.00
14397;DHT22;50653;47.810;13.022;2023-06-26T02:10:06;19.40;64.80
14397;DHT22;50653;47.810;13.022;2023-06-26T02:12:34;19.40;64.80
14397;DHT22;50653;47.810;13.022;2023-06-26T02:14:59;19.20;65.00
14397;DHT22;50653;47.810;13.022;2023-06-26T02:17:25;18.60;65.60
14397;DHT22;50653;47.810;13.022;2023-06-26T02:19:54;18.70;66.70
14397;DHT22;50653;47.810;13.022;2023-06-26T02:22:19;18.80;66.80
14397;DHT22;50653;47.810;13.022;2023-06-26T02:24:47;18.40;67.50
14397;DHT22;50653;47.810;13.022;2023-06-26T02:27:13;18.70;67.90
14397;DHT22;50653;47.810;13.022;2023-06-26T02:29:40;18.90;67.00
14397;DHT22;50653;47.810;13.022;2023-06-26T02:32:07;19.10;66.90
14397;DHT22;50653;47.810;13.022;2023-06-26T02:34:34;19.30;66.40
14397;DHT22;50653;47.810;13.022;2023-06-26T02:37:01;19.20;66.20
14397;DHT22;50653;47.810;13.022;2023-06-26T02:39:27;19.00;66.50
14397;DHT22;50653;47.810;13.022;2023-06-26T02:41:53;18.90;67.20
14397;DHT22;50653;47.810;13.022;2023-06-26T02:44:20;19.10;67.00
14397;DHT22;50653;47.810;13.022;2023-06-26T02:46:46;19.20;66.60
14397;DHT22;50653;47.810;13.022;2023-06-26T02:49:12;18.80;67.40
14397;DHT22;50653;47.810;13.022;2023-06-26T02:51:38;18.90;68.00
14397;DHT22;50653;47.810;13.022;2023-06-26T02:54:11;18.90;68.00
14397;DHT22;50653;47.810;13.022;2023-06-26T02:56:37;19.00;67.60
14397;DHT22;50653;47.810;13.022;2023-06-26T02:59:03;18.80;67.50
14397;DHT22;50653;47.810;13.022;2023-06-26T03:01:28;18.40;68.20
14397;DHT22;50653;47.810;13.022;2023-06-26T03:03:54;18.70;68.70
14397;DHT22;50653;47.810;13.022;2023-06-26T03:06:20;18.80;68.30
14397;DHT22;50653;47.810;13.022;2023-06-26T03:08:46;18.90;67.50
14397;DHT22;50653;47.810;13.022;2023-06-26T03:11:14;18.90;67.50
14397;DHT22;50653;47.810;13.022;2023-06-26T03:13:39;19.00;67.40
14397;DHT22;50653;47.810;13.022;2023-06-26T03:16:05;18.80;67.60
14397;DHT22;50653;47.810;13.022;2023-06-26T03:18:31;19.00;67.50
14397;DHT22;50653;47.810;13.022;2023-06-26T03:20:57;19.10;67.20
14397;DHT22;50653;47.810;13.022;2023-06-26T03:23:23;18.70;67.50
14397;DHT22;50653;47.810;13.022;2023-06-26T03:25:50;18.50;68.50
14397;DHT22;50653;47.810;13.022;2023-06-26T03:28:26;18.90;68.20
14397;DHT22;50653;47.810;13.022;2023-06-26T03:30:52;18.90;68.00
14397;DHT22;50653;47.810;13.022;2023-06-26T03:33:18;18.90;67.60
14397;DHT22;50653;47.810;13.022;2023-06-26T03:35:44;18.90;68.20
14397;DHT22;50653;47.810;13.022;2023-06-26T03:38:12;19.00;67.70
14397;DHT22;50653;47.810;13.022;2023-06-26T03:40:39;19.00;67.80
14397;DHT22;50653;47.810;13.022;2023-06-26T03:43:05;18.90;67.90
14397;DHT22;50653;47.810;13.022;2023-06-26T03:45:41;18.90;68.20
14397;DHT22;50653;47.810;13.022;2023-06-26T03:48:07;18.80;68.60
14397;DHT22;50653;47.810;13.022;2023-06-26T03:50:35;18.50;68.80
14397;DHT22;50653;47.810;13.022;2023-06-26T03:53:01;18.60;69.20
14397;DHT22;50653;47.810;13.022;2023-06-26T03:55:27;18.50;69.70
14397;DHT22;50653;47.810;13.022;2023-06-26T03:57:53;18.90;68.90
14397;DHT22;50653;47.810;13.022;2023-06-26T04:00:18;18.90;68.80
14397;DHT22;50653;47.810;13.022;2023-06-26T04:02:44;18.90;69.40
14397;DHT22;50653;47.810;13.022;2023-06-26T04:05:11;19.00;68.20
14397;DHT22;50653;47.810;13.022;2023-06-26T04:07:37;19.00;68.10
14397;DHT22;50653;47.810;13.022;2023-06-26T04:10:06;19.10;67.90
14397;DHT22;50653;47.810;13.022;2023-06-26T04:12:32;18.80;68.20
14397;DHT22;50653;47.810;13.022;2023-06-26T04:14:58;19.00;68.60
14397;DHT22;50653;47.810;13.022;2023-06-26T04:17:24;18.90;68.80
14397;DHT22;50653;47.810;13.022;2023-06-26T04:19:50;18.80;68.60
14397;DHT22;50653;47.810;13.022;2023-06-26T04:22:15;18.90;68.60
14397;DHT22;50653;47.810;13.022;2023-06-26T04:24:41;18.70;68.90
14397;DHT22;50653;47.810;13.022;2023-06-26T04:27:06;18.90;69.90
14397;DHT22;50653;47.810;13.022;2023-06-26T04:29:32;19.00;69.60
14397;DHT22;50653;47.810;13.022;2023-06-26T04:31:58;19.10;68.80
14397;DHT22;50653;47.810;13.022;2023-06-26T04:34:30;19.00;68.00
14397;DHT22;50653;47.810;13.022;2023-06-26T04:36:58;19.10;67.70
14397;DHT22;50653;47.810;13.022;2023-06-26T04:39:23;18.80;68.50
14397;DHT22;50653;47.810;13.022;2023-06-26T04:41:49;19.00;68.40
14397;DHT22;50653;47.810;13.022;2023-06-26T04:44:14;19.00;68.30
14397;DHT22;50653;47.810;13.022;2023-06-26T04:46:40;18.90;68.50
14397;DHT22;50653;47.810;13.022;2023-06-26T04:49:09;19.00;68.40
14397;DHT22;50653;47.810;13.022;2023-06-26T04:51:35;18.80;69.30
14397;DHT22;50653;47.810;13.022;2023-06-26T04:54:07;18.70;69.40
14397;DHT22;50653;47.810;13.022;2023-06-26T04:56:33;18.80;69.60
14397;DHT22;50653;47.810;13.022;2023-06-26T04:58:59;19.10;69.30
14397;DHT22;50653;47.810;13.022;2023-06-26T05:01:24;19.00;69.20
14397;DHT22;50653;47.810;13.022;2023-06-26T05:03:50;19.00;69.20
14397;DHT22;50653;47.810;13.022;2023-06-26T05:06:16;18.90;69.60
14397;DHT22;50653;47.810;13.022;2023-06-26T05:08:41;19.00;70.00
14397;DHT22;50653;47.810;13.022;2023-06-26T05:11:07;19.00;69.90
14397;DHT22;50653;47.810;13.022;2023-06-26T05:13:33;19.00;69.90
14397;DHT22;50653;47.810;13.022;2023-06-26T05:15:58;19.10;69.80
14397;DHT22;50653;47.810;13.022;2023-06-26T05:18:24;19.10;69.60
14397;DHT22;50653;47.810;13.022;2023-06-26T05:20:50;19.00;69.90
14397;DHT22;50653;47.810;13.022;2023-06-26T05:23:16;19.10;69.80
14397;DHT22;50653;47.810;13.022;2023-06-26T05:25:42;19.20;69.80
14397;DHT22;50653;47.810;13.022;2023-06-26T05:28:08;19.20;69.80
14397;DHT22;50653;47.810;13.022;2023-06-26T05:30:36;19.30;69.90
14397;DHT22;50653;47.810;13.022;2023-06-26T05:33:02;19.40;69.70
14397;DHT22;50653;47.810;13.022;2023-06-26T05:35:29;19.30;70.00
14397;DHT22;50653;47.810;13.022;2023-06-26T05:37:57;19.40;70.50
14397;DHT22;50653;47.810;13.022;2023-06-26T05:40:23;19.50;70.70
14397;DHT22;50653;47.810;13.022;2023-06-26T05:42:49;19.50;70.00
14397;DHT22;50653;47.810;13.022;2023-06-26T05:45:15;19.60;69.40
14397;DHT22;50653;47.810;13.022;2023-06-26T05:47:41;19.50;69.20
14397;DHT22;50653;47.810;13.022;2023-06-26T05:50:09;19.50;69.10
14397;DHT22;50653;47.810;13.022;2023-06-26T05:52:35;19.60;69.20
14397;DHT22;50653;47.810;13.022;2023-06-26T05:55:02;19.60;69.40
14397;DHT22;50653;47.810;13.022;2023-06-26T05:57:29;19.70;69.80
14397;DHT22;50653;47.810;13.022;2023-06-26T05:59:55;19.70;69.30
14397;DHT22;50653;47.810;13.022;2023-06-26T06:02:21;19.80;69.30
14397;DHT22;50653;47.810;13.022;2023-06-26T06:04:47;19.70;69.40
14397;DHT22;50653;47.810;13.022;2023-06-26T06:07:13;19.80;69.20
14397;DHT22;50653;47.810;13.022;2023-06-26T06:09:39;19.90;69.20
14397;DHT22;50653;47.810;13.022;2023-06-26T06:12:06;19.90;69.10
14397;DHT22;50653;47.810;13.022;2023-06-26T06:14:34;20.00;69.10
14397;DHT22;50653;47.810;13.022;2023-06-26T06:17:01;20.10;69.40
14397;DHT22;50653;47.810;13.022;2023-06-26T06:19:27;20.10;68.40
14397;DHT22;50653;47.810;13.022;2023-06-26T06:21:53;20.10;68.80
14397;DHT22;50653;47.810;13.022;2023-06-26T06:24:19;20.20;69.00
14397;DHT22;50653;47.810;13.022;2023-06-26T06:26:45;20.20;68.60
14397;DHT22;50653;47.810;13.022;2023-06-26T06:29:10;20.20;68.70
14397;DHT22;50653;47.810;13.022;2023-06-26T06:31:36;20.30;68.70
14397;DHT22;50653;47.810;13.022;2023-06-26T06:34:02;20.30;68.50
14397;DHT22;50653;47.810;13.022;2023-06-26T06:36:27;20.30;68.40
14397;DHT22;50653;47.810;13.022;2023-06-26T06:38:53;20.40;68.50
14397;DHT22;50653;47.810;13.022;2023-06-26T06:41:20;20.40;68.90
14397;DHT22;50653;47.810;13.022;2023-06-26T06:43:46;20.50;68.90
14397;DHT22;50653;47.810;13.022;2023-06-26T06:46:11;20.50;68.70
14397;DHT22;50653;47.810;13.022;2023-06-26T06:48:37;20.50;68.50
14397;DHT22;50653;47.810;13.022;2023-06-26T06:51:03;20.60;68.50
14397;DHT22;50653;47.810;13.022;2023-06-26T06:53:29;20.60;68.10
14397;DHT22;50653;47.810;13.022;2023-06-26T06:55:55;20.70;67.70
14397;DHT22;50653;47.810;13.022;2023-06-26T06:58:21;20.70;67.70
14397;DHT22;50653;47.810;13.022;2023-06-26T07:00:48;20.80;67.60
14397;DHT22;50653;47.810;13.022;2023-06-26T07:03:14;20.80;67.80
14397;DHT22;50653;47.810;13.022;2023-06-26T07:05:44;20.80;67.90
14397;DHT22;50653;47.810;13.022;2023-06-26T07:08:10;20.90;68.20
14397;DHT22;50653;47.810;13.022;2023-06-26T07:10:35;20.90;68.10
14397;DHT22;50653;47.810;13.022;2023-06-26T07:13:01;21.00;67.40
14397;DHT22;50653;47.810;13.022;2023-06-26T07:15:27;21.10;67.20
14397;DHT22;50653;47.810;13.022;2023-06-26T07:17:53;21.10;67.10
14397;DHT22;50653;47.810;13.022;2023-06-26T07:20:18;21.20;67.00
14397;DHT22;50653;47.810;13.022;2023-06-26T07:22:44;21.20;66.60
14397;DHT22;50653;47.810;13.022;2023-06-26T07:25:10;21.30;66.90
14397;DHT22;50653;47.810;13.022;2023-06-26T07:27:37;21.30;66.60
14397;DHT22;50653;47.810;13.022;2023-06-26T07:30:03;21.40;66.50
14397;DHT22;50653;47.810;13.022;2023-06-26T07:32:29;21.40;66.30
14397;DHT22;50653;47.810;13.022;2023-06-26T07:34:55;21.50;66.50
14397;DHT22;50653;47.810;13.022;2023-06-26T07:37:21;21.50;66.20
14397;DHT22;50653;47.810;13.022;2023-06-26T07:39:48;21.50;66.10
14397;DHT22;50653;47.810;13.022;2023-06-26T07:42:14;21.60;66.50
14397;DHT22;50653;47.810;13.022;2023-06-26T07:44:41;21.60;66.10
14397;DHT22;50653;47.810;13.022;2023-06-26T07:47:07;21.80;65.40
14397;DHT22;50653;47.810;13.022;2023-06-26T07:49:33;21.60;65.60
14397;DHT22;50653;47.810;13.022;2023-06-26T07:51:59;21.70;65.20
14397;DHT22;50653;47.810;13.022;2023-06-26T07:54:24;21.70;65.70
14397;DHT22;50653;47.810;13.022;2023-06-26T07:56:54;21.80;64.60
14397;DHT22;50653;47.810;13.022;2023-06-26T07:59:20;21.80;65.00
14397;DHT22;50653;47.810;13.022;2023-06-26T08:01:48;21.90;64.10
14397;DHT22;50653;47.810;13.022;2023-06-26T08:04:13;21.80;64.40
14397;DHT22;50653;47.810;13.022;2023-06-26T08:06:39;21.70;64.60
14397;DHT22;50653;47.810;13.022;2023-06-26T08:09:06;22.00;63.70
14397;DHT22;50653;47.810;13.022;2023-06-26T08:11:33;22.00;62.90
14397;DHT22;50653;47.810;13.022;2023-06-26T08:13:59;21.90;62.90
14397;DHT22;50653;47.810;13.022;2023-06-26T08:16:25;22.00;63.30
14397;DHT22;50653;47.810;13.022;2023-06-26T08:18:50;21.90;62.80
14397;DHT22;50653;47.810;13.022;2023-06-26T08:21:16;22.00;62.50
14397;DHT22;50653;47.810;13.022;2023-06-26T08:23:42;22.10;62.90
14397;DHT22;50653;47.810;13.022;2023-06-26T08:26:08;22.20;61.70
14397;DHT22;50653;47.810;13.022;2023-06-26T08:28:33;22.40;63.20
14397;DHT22;50653;47.810;13.022;2023-06-26T08:30:59;22.70;61.70
14397;DHT22;50653;47.810;13.022;2023-06-26T08:33:25;22.90;59.80
14397;DHT22;50653;47.810;13.022;2023-06-26T08:35:51;22.60;59.90
14397;DHT22;50653;47.810;13.022;2023-06-26T08:38:16;23.00;58.10
14397;DHT22;50653;47.810;13.022;2023-06-26T08:40:42;22.90;59.00
14397;DHT22;50653;47.810;13.022;2023-06-26T08:43:08;23.00;58.60
14397;DHT22;50653;47.810;13.022;2023-06-26T08:45:34;23.10;58.00
14397;DHT22;50653;47.810;13.022;2023-06-26T08:48:00;23.30;57.00
14397;DHT22;50653;47.810;13.022;2023-06-26T08:50:30;23.40;57.80
14397;DHT22;50653;47.810;13.022;2023-06-26T08:53:09;23.20;57.40
14397;DHT22;50653;47.810;13.022;2023-06-26T08:55:41;23.40;56.90
14397;DHT22;50653;47.810;13.022;2023-06-26T08:58:07;23.20;57.80
14397;DHT22;50653;47.810;13.022;2023-06-26T09:00:33;23.00;58.30
14397;DHT22;50653;47.810;13.022;2023-06-26T09:02:59;23.40;56.70
14397;DHT22;50653;47.810;13.022;2023-06-26T09:05:26;23.80;55.90
14397;DHT22;50653;47.810;13.022;2023-06-26T09:07:53;23.40;57.30
14397;DHT22;50653;47.810;13.022;2023-06-26T09:10:21;23.60;56.50
14397;DHT22;50653;47.810;13.022;2023-06-26T09:12:47;23.60;55.10
14397;DHT22;50653;47.810;13.022;2023-06-26T09:15:19;24.10;53.70
14397;DHT22;50653;47.810;13.022;2023-06-26T09:17:45;24.10;53.90
14397;DHT22;50653;47.810;13.022;2023-06-26T09:20:12;24.20;54.70
14397;DHT22;50653;47.810;13.022;2023-06-26T09:22:41;24.20;54.90
14397;DHT22;50653;47.810;13.022;2023-06-26T09:25:08;24.10;54.80
14397;DHT22;50653;47.810;13.022;2023-06-26T09:27:35;24.10;54.40
14397;DHT22;50653;47.810;13.022;2023-06-26T09:30:02;24.00;55.40
14397;DHT22;50653;47.810;13.022;2023-06-26T09:32:28;24.30;55.60
14397;DHT22;50653;47.810;13.022;2023-06-26T09:34:54;24.40;55.50
14397;DHT22;50653;47.810;13.022;2023-06-26T09:37:26;24.10;55.40
14397;DHT22;50653;47.810;13.022;2023-06-26T09:39:52;24.10;56.30
14397;DHT22;50653;47.810;13.022;2023-06-26T09:42:19;24.30;55.70
14397;DHT22;50653;47.810;13.022;2023-06-26T09:44:46;24.20;55.70
14397;DHT22;50653;47.810;13.022;2023-06-26T09:47:11;24.10;56.00
14397;DHT22;50653;47.810;13.022;2023-06-26T09:49:41;24.30;55.80
14397;DHT22;50653;47.810;13.022;2023-06-26T09:52:08;24.60;55.40
14397;DHT22;50653;47.810;13.022;2023-06-26T09:54:34;24.70;54.90
14397;DHT22;50653;47.810;13.022;2023-06-26T09:57:28;24.50;55.60
14397;DHT22;50653;47.810;13.022;2023-06-26T09:59:54;24.40;55.10
14397;DHT22;50653;47.810;13.022;2023-06-26T10:02:19;24.80;55.00
14397;DHT22;50653;47.810;13.022;2023-06-26T10:04:45;24.90;54.90
14397;DHT22;50653;47.810;13.022;2023-06-26T10:07:11;24.80;55.50
14397;DHT22;50653;47.810;13.022;2023-06-26T10:09:41;24.80;55.10
14397;DHT22;50653;47.810;13.022;2023-06-26T10:12:21;24.90;55.20
14397;DHT22;50653;47.810;13.022;2023-06-26T10:14:48;25.30;55.60
14397;DHT22;50653;47.810;13.022;2023-06-26T10:17:19;25.30;54.80
14397;DHT22;50653;47.810;13.022;2023-06-26T10:19:48;24.70;55.90
14397;DHT22;50653;47.810;13.022;2023-06-26T10:22:18;25.30;55.30
14397;DHT22;50653;47.810;13.022;2023-06-26T10:24:47;25.50;54.40
14397;DHT22;50653;47.810;13.022;2023-06-26T10:27:19;25.30;54.60
14397;DHT22;50653;47.810;13.022;2023-06-26T10:29:54;24.90;55.30
14397;DHT22;50653;47.810;13.022;2023-06-26T10:32:21;24.90;55.70
14397;DHT22;50653;47.810;13.022;2023-06-26T10:34:49;25.10;54.50
14397;DHT22;50653;47.810;13.022;2023-06-26T10:37:15;25.50;54.00
14397;DHT22;50653;47.810;13.022;2023-06-26T10:39:51;26.00;54.10
14397;DHT22;50653;47.810;13.022;2023-06-26T10:42:28;25.90;53.60
14397;DHT22;50653;47.810;13.022;2023-06-26T10:45:21;26.20;53.10
14397;DHT22;50653;47.810;13.022;2023-06-26T10:47:48;26.10;53.00
14397;DHT22;50653;47.810;13.022;2023-06-26T10:52:45;25.40;54.20
14397;DHT22;50653;47.810;13.022;2023-06-26T10:55:13;25.40;54.60
14397;DHT22;50653;47.810;13.022;2023-06-26T10:57:39;25.50;54.60
14397;DHT22;50653;47.810;13.022;2023-06-26T11:00:14;26.30;53.20
14397;DHT22;50653;47.810;13.022;2023-06-26T11:02:50;26.40;53.30
14397;DHT22;50653;47.810;13.022;2023-06-26T11:05:26;25.80;53.60
14397;DHT22;50653;47.810;13.022;2023-06-26T11:08:07;25.90;53.50
14397;DHT22;50653;47.810;13.022;2023-06-26T11:10:54;25.80;53.60
14397;DHT22;50653;47.810;13.022;2023-06-26T11:13:25;25.60;53.60
14397;DHT22;50653;47.810;13.022;2023-06-26T11:15:51;26.30;52.80
14397;DHT22;50653;47.810;13.022;2023-06-26T11:18:17;26.60;53.00
14397;DHT22;50653;47.810;13.022;2023-06-26T11:20:43;26.10;53.30
14397;DHT22;50653;47.810;13.022;2023-06-26T11:23:09;26.10;53.10
14397;DHT22;50653;47.810;13.022;2023-06-26T11:25:36;26.60;52.40
14397;DHT22;50653;47.810;13.022;2023-06-26T11:28:03;26.70;52.40
14397;DHT22;50653;47.810;13.022;2023-06-26T11:30:30;26.60;52.50
14397;DHT22;50653;47.810;13.022;2023-06-26T11:33:06;26.40;53.10
14397;DHT22;50653;47.810;13.022;2023-06-26T11:35:32;26.60;52.70
14397;DHT22;50653;47.810;13.022;2023-06-26T11:38:02;26.70;52.40
14397;DHT22;50653;47.810;13.022;2023-06-26T11:40:35;26.70;52.70
14397;DHT22;50653;47.810;13.022;2023-06-26T11:43:02;27.40;51.70
14397;DHT22;50653;47.810;13.022;2023-06-26T11:45:29;26.80;51.70
14397;DHT22;50653;47.810;13.022;2023-06-26T11:47:56;27.00;51.50
14397;DHT22;50653;47.810;13.022;2023-06-26T11:50:24;26.90;52.50
14397;DHT22;50653;47.810;13.022;2023-06-26T11:52:57;26.80;52.40
14397;DHT22;50653;47.810;13.022;2023-06-26T11:55:26;26.80;52.20
14397;DHT22;50653;47.810;13.022;2023-06-26T11:57:56;27.00;52.30
14397;DHT22;50653;47.810;13.022;2023-06-26T12:00:22;27.30;52.40
14397;DHT22;50653;47.810;13.022;2023-06-26T12:02:48;27.40;52.40
14397;DHT22;50653;47.810;13.022;2023-06-26T12:05:18;27.20;52.40
14397;DHT22;50653;47.810;13.022;2023-06-26T12:07:46;27.30;52.50
14397;DHT22;50653;47.810;13.022;2023-06-26T12:10:13;27.20;53.20
14397;DHT22;50653;47.810;13.022;2023-06-26T12:12:40;27.50;52.30
14397;DHT22;50653;47.810;13.022;2023-06-26T12:15:07;27.40;52.00
14397;DHT22;50653;47.810;13.022;2023-06-26T12:17:37;27.20;52.10
14397;DHT22;50653;47.810;13.022;2023-06-26T12:20:04;27.40;52.00
14397;DHT22;50653;47.810;13.022;2023-06-26T12:22:34;27.40;52.30
14397;DHT22;50653;47.810;13.022;2023-06-26T12:25:01;27.50;52.30
14397;DHT22;50653;47.810;13.022;2023-06-26T12:27:27;27.60;52.10
14397;DHT22;50653;47.810;13.022;2023-06-26T12:29:54;27.50;52.30
14397;DHT22;50653;47.810;13.022;2023-06-26T12:32:22;27.50;52.70
14397;DHT22;50653;47.810;13.022;2023-06-26T12:34:49;27.70;52.00
14397;DHT22;50653;47.810;13.022;2023-06-26T12:37:16;27.70;52.70
14397;DHT22;50653;47.810;13.022;2023-06-26T12:39:46;27.80;52.50
14397;DHT22;50653;47.810;13.022;2023-06-26T12:42:34;27.90;52.00
14397;DHT22;50653;47.810;13.022;2023-06-26T12:45:10;28.00;52.80
14397;DHT22;50653;47.810;13.022;2023-06-26T12:47:36;27.90;52.50
14397;DHT22;50653;47.810;13.022;2023-06-26T12:50:05;27.60;53.00
14397;DHT22;50653;47.810;13.022;2023-06-26T12:52:31;27.70;52.30
14397;DHT22;50653;47.810;13.022;2023-06-26T12:54:57;27.60;52.50
14397;DHT22;50653;47.810;13.022;2023-06-26T12:57:23;27.90;52.80
14397;DHT22;50653;47.810;13.022;2023-06-26T12:59:49;27.80;52.40
14397;DHT22;50653;47.810;13.022;2023-06-26T13:02:14;28.20;52.00
14397;DHT22;50653;47.810;13.022;2023-06-26T13:04:40;28.70;51.80
14397;DHT22;50653;47.810;13.022;2023-06-26T13:07:10;28.70;51.80
14397;DHT22;50653;47.810;13.022;2023-06-26T13:09:36;28.80;51.30
14397;DHT22;50653;47.810;13.022;2023-06-26T13:12:03;28.50;51.80
14397;DHT22;50653;47.810;13.022;2023-06-26T13:14:29;28.60;52.30
14397;DHT22;50653;47.810;13.022;2023-06-26T13:16:55;28.70;51.40
14397;DHT22;50653;47.810;13.022;2023-06-26T13:19:21;28.60;51.90
14397;DHT22;50653;47.810;13.022;2023-06-26T13:21:47;28.30;52.50
14397;DHT22;50653;47.810;13.022;2023-06-26T13:24:13;28.70;51.30
14397;DHT22;50653;47.810;13.022;2023-06-26T13:26:39;28.50;51.80
14397;DHT22;50653;47.810;13.022;2023-06-26T13:29:05;28.70;51.00
14397;DHT22;50653;47.810;13.022;2023-06-26T13:31:31;28.80;50.90
14397;DHT22;50653;47.810;13.022;2023-06-26T13:34:01;29.00;50.60
14397;DHT22;50653;47.810;13.022;2023-06-26T13:36:27;28.90;50.60
14397;DHT22;50653;47.810;13.022;2023-06-26T13:38:52;28.90;50.70
14397;DHT22;50653;47.810;13.022;2023-06-26T13:41:24;28.80;51.30
14397;DHT22;50653;47.810;13.022;2023-06-26T13:43:50;28.50;51.50
14397;DHT22;50653;47.810;13.022;2023-06-26T13:46:16;28.70;51.40
14397;DHT22;50653;47.810;13.022;2023-06-26T13:48:46;28.90;51.50
14397;DHT22;50653;47.810;13.022;2023-06-26T13:51:12;28.90;51.10
14397;DHT22;50653;47.810;13.022;2023-06-26T13:53:38;29.30;50.60
14397;DHT22;50653;47.810;13.022;2023-06-26T13:56:03;29.40;51.20
14397;DHT22;50653;47.810;13.022;2023-06-26T13:58:30;29.20;51.00
14397;DHT22;50653;47.810;13.022;2023-06-26T14:00:58;29.30;50.70
14397;DHT22;50653;47.810;13.022;2023-06-26T14:03:25;29.10;50.40
14397;DHT22;50653;47.810;13.022;2023-06-26T14:05:51;29.30;50.70
14397;DHT22;50653;47.810;13.022;2023-06-26T14:08:17;29.30;50.60
14397;DHT22;50653;47.810;13.022;2023-06-26T14:10:42;29.40;50.20
14397;DHT22;50653;47.810;13.022;2023-06-26T14:13:08;29.40;50.60
14397;DHT22;50653;47.810;13.022;2023-06-26T14:15:34;29.40;50.40
14397;DHT22;50653;47.810;13.022;2023-06-26T14:18:01;29.40;50.10
14397;DHT22;50653;47.810;13.022;2023-06-26T14:20:29;29.40;50.70
14397;DHT22;50653;47.810;13.022;2023-06-26T14:22:58;29.40;50.70
14397;DHT22;50653;47.810;13.022;2023-06-26T14:25:24;29.20;50.80
14397;DHT22;50653;47.810;13.022;2023-06-26T14:27:49;29.50;50.60
14397;DHT22;50653;47.810;13.022;2023-06-26T14:30:15;29.50;49.30
14397;DHT22;50653;47.810;13.022;2023-06-26T14:32:40;29.60;49.20
14397;DHT22;50653;47.810;13.022;2023-06-26T14:35:06;29.50;49.70
14397;DHT22;50653;47.810;13.022;2023-06-26T14:37:32;29.60;50.00
14397;DHT22;50653;47.810;13.022;2023-06-26T14:39:58;29.40;48.60
14397;DHT22;50653;47.810;13.022;2023-06-26T14:42:26;29.50;48.70
14397;DHT22;50653;47.810;13.022;2023-06-26T14:44:52;29.80;48.70
14397;DHT22;50653;47.810;13.022;2023-06-26T14:47:18;29.90;48.40
14397;DHT22;50653;47.810;13.022;2023-06-26T14:49:43;29.50;49.30
14397;DHT22;50653;47.810;13.022;2023-06-26T14:52:09;29.40;49.30
14397;DHT22;50653;47.810;13.022;2023-06-26T14:54:35;29.60;49.30
14397;DHT22;50653;47.810;13.022;2023-06-26T14:57:05;29.70;49.10
14397;DHT22;50653;47.810;13.022;2023-06-26T14:59:31;29.70;49.50
14397;DHT22;50653;47.810;13.022;2023-06-26T15:01:57;29.60;49.80
14397;DHT22;50653;47.810;13.022;2023-06-26T15:04:22;29.70;49.20
14397;DHT22;50653;47.810;13.022;2023-06-26T15:06:48;29.80;48.60
14397;DHT22;50653;47.810;13.022;2023-06-26T15:09:14;29.90;48.70
14397;DHT22;50653;47.810;13.022;2023-06-26T15:11:40;29.80;49.20
14397;DHT22;50653;47.810;13.022;2023-06-26T15:14:06;29.70;48.90
14397;DHT22;50653;47.810;13.022;2023-06-26T15:16:31;29.60;48.10
14397;DHT22;50653;47.810;13.022;2023-06-26T15:18:57;29.60;48.30
14397;DHT22;50653;47.810;13.022;2023-06-26T15:21:23;30.00;47.80